EZY11AR LGAV-LROP
Flight info
| Callsign | EZY11AR |
|---|---|
| Flight time | 1h 29m |
| Altitude | 36000 |
| Route | KRO UT162 KOROS UN133 ATFIR N133 USALI Q24 SOMOV DCT SORDU |
| Aircraft | B736/M-SDE2E3FGHIRWXY/LB1 |
Departure
| Time | 2026-05-05 15:13 |
|---|---|
| Airport | Athens Eleftherios Venizelos International Airport (LGAV) |
Arrival
| Time | 2026-05-05 16:43 |
|---|---|
| Airport | Bucharest Henri Coandă International Airport (LROP) |
| Time | Latitude | Longitude | Altitude | Speed | Heading |
|---|---|---|---|---|---|
| 2026-05-05 15:05 | 37.93374 | 23.95010 | 298 ft | 0 kts | 39° |
| 2026-05-05 15:07 | 37.93378 | 23.95014 | 298 ft | 3 kts | 44° |
| 2026-05-05 15:07 | 37.93413 | 23.95058 | 300 ft | 10 kts | 39° |
| 2026-05-05 15:07 | 37.93481 | 23.95121 | 297 ft | 14 kts | 36° |
| 2026-05-05 15:08 | 37.93568 | 23.95204 | 300 ft | 17 kts | 36° |
| 2026-05-05 15:08 | 37.93668 | 23.95299 | 297 ft | 19 kts | 37° |
| 2026-05-05 15:08 | 37.93779 | 23.95405 | 297 ft | 21 kts | 37° |
| 2026-05-05 15:08 | 37.93901 | 23.95520 | 295 ft | 23 kts | 36° |
| 2026-05-05 15:09 | 37.94032 | 23.95643 | 297 ft | 24 kts | 37° |
| 2026-05-05 15:09 | 37.94164 | 23.95767 | 298 ft | 23 kts | 37° |
| 2026-05-05 15:09 | 37.94290 | 23.95887 | 298 ft | 22 kts | 37° |
| 2026-05-05 15:09 | 37.94412 | 23.96002 | 298 ft | 22 kts | 37° |
| 2026-05-05 15:10 | 37.94532 | 23.96118 | 299 ft | 22 kts | 37° |
| 2026-05-05 15:10 | 37.94655 | 23.96234 | 298 ft | 22 kts | 37° |
| 2026-05-05 15:10 | 37.94776 | 23.96348 | 299 ft | 21 kts | 37° |
| 2026-05-05 15:10 | 37.94891 | 23.96459 | 303 ft | 21 kts | 37° |
| 2026-05-05 15:11 | 37.95004 | 23.96566 | 302 ft | 20 kts | 37° |
| 2026-05-05 15:11 | 37.95113 | 23.96670 | 301 ft | 19 kts | 37° |
| 2026-05-05 15:11 | 37.95224 | 23.96775 | 302 ft | 20 kts | 37° |
| 2026-05-05 15:11 | 37.95307 | 23.96853 | 303 ft | 7 kts | 37° |
| 2026-05-05 15:12 | 37.95360 | 23.96905 | 303 ft | 13 kts | 37° |
| 2026-05-05 15:12 | 37.95380 | 23.96995 | 303 ft | 9 kts | 126° |
| 2026-05-05 15:12 | 37.95314 | 23.97026 | 306 ft | 12 kts | 169° |
| 2026-05-05 15:12 | 37.95195 | 23.97022 | 309 ft | 24 kts | 207° |
| 2026-05-05 15:13 | 37.94932 | 23.96776 | 305 ft | 82 kts | 217° |
| 2026-05-05 15:13 | 37.94283 | 23.96161 | 297 ft | 146 kts | 214° |
| 2026-05-05 15:13 | 37.93418 | 23.95333 | 801 ft | 158 kts | 215° |
| 2026-05-05 15:13 | 37.92561 | 23.94525 | 1652 ft | 151 kts | 217° |
| 2026-05-05 15:14 | 37.91675 | 23.93782 | 2307 ft | 160 kts | 206° |
| 2026-05-05 15:14 | 37.90576 | 23.93115 | 2655 ft | 192 kts | 209° |
| 2026-05-05 15:14 | 37.89304 | 23.92279 | 2919 ft | 223 kts | 210° |
| 2026-05-05 15:14 | 37.87855 | 23.91318 | 3310 ft | 244 kts | 210° |
| 2026-05-05 15:15 | 37.86315 | 23.90293 | 3981 ft | 255 kts | 209° |
| 2026-05-05 15:15 | 37.84739 | 23.89239 | 4942 ft | 259 kts | 210° |
| 2026-05-05 15:15 | 37.83137 | 23.88167 | 5908 ft | 262 kts | 210° |
| 2026-05-05 15:15 | 37.81509 | 23.87076 | 6655 ft | 267 kts | 210° |
| 2026-05-05 15:16 | 37.79851 | 23.85980 | 7453 ft | 271 kts | 206° |
| 2026-05-05 15:16 | 37.78007 | 23.85448 | 8391 ft | 276 kts | 182° |
| 2026-05-05 15:16 | 37.76094 | 23.85779 | 9321 ft | 280 kts | 162° |
| 2026-05-05 15:16 | 37.74211 | 23.86628 | 9951 ft | 296 kts | 151° |
| 2026-05-05 15:17 | 37.72786 | 23.88226 | 10384 ft | 311 kts | 123° |
| 2026-05-05 15:17 | 37.71742 | 23.90742 | 10602 ft | 336 kts | 112° |
| 2026-05-05 15:17 | 37.70760 | 23.93544 | 10799 ft | 361 kts | 112° |
| 2026-05-05 15:17 | 37.69643 | 23.96495 | 11064 ft | 383 kts | 114° |
| 2026-05-05 15:18 | 37.68418 | 23.99532 | 11679 ft | 390 kts | 115° |
| 2026-05-05 15:18 | 37.67152 | 24.02580 | 12472 ft | 394 kts | 115° |
| 2026-05-05 15:18 | 37.65882 | 24.05610 | 13255 ft | 397 kts | 115° |
| 2026-05-05 15:18 | 37.64581 | 24.08711 | 13992 ft | 402 kts | 115° |
| 2026-05-05 15:19 | 37.63266 | 24.11852 | 14625 ft | 407 kts | 115° |
| 2026-05-05 15:19 | 37.61935 | 24.15035 | 15247 ft | 413 kts | 115° |
| 2026-05-05 15:19 | 37.60585 | 24.18270 | 15862 ft | 419 kts | 114° |
| 2026-05-05 15:19 | 37.59668 | 24.21740 | 16465 ft | 417 kts | 94° |
| 2026-05-05 15:20 | 37.59714 | 24.25366 | 17125 ft | 412 kts | 75° |
| 2026-05-05 15:20 | 37.60643 | 24.28756 | 17776 ft | 407 kts | 57° |
| 2026-05-05 15:20 | 37.62315 | 24.31604 | 18419 ft | 403 kts | 41° |
| 2026-05-05 15:20 | 37.64509 | 24.33761 | 18975 ft | 400 kts | 25° |
| 2026-05-05 15:21 | 37.67063 | 24.35132 | 19570 ft | 399 kts | 17° |
| 2026-05-05 15:21 | 37.69656 | 24.36276 | 20152 ft | 401 kts | 15° |
| 2026-05-05 15:21 | 37.72316 | 24.37410 | 20707 ft | 405 kts | 15° |
| 2026-05-05 15:21 | 37.75002 | 24.38560 | 21246 ft | 408 kts | 15° |
| 2026-05-05 15:22 | 37.77700 | 24.39736 | 21781 ft | 411 kts | 15° |
| 2026-05-05 15:22 | 37.80420 | 24.40938 | 22295 ft | 415 kts | 15° |
| 2026-05-05 15:22 | 37.83142 | 24.42154 | 22807 ft | 418 kts | 15° |
| 2026-05-05 15:22 | 37.85907 | 24.43396 | 23318 ft | 421 kts | 15° |
| 2026-05-05 15:23 | 37.88680 | 24.44646 | 23784 ft | 424 kts | 15° |
| 2026-05-05 15:23 | 37.91470 | 24.45904 | 24210 ft | 427 kts | 15° |
| 2026-05-05 15:23 | 37.94267 | 24.47166 | 24678 ft | 428 kts | 15° |
| 2026-05-05 15:23 | 37.97070 | 24.48430 | 25132 ft | 430 kts | 14° |
| 2026-05-05 15:24 | 37.99876 | 24.49688 | 25568 ft | 431 kts | 14° |
| 2026-05-05 15:24 | 38.02778 | 24.50846 | 25922 ft | 434 kts | 11° |
| 2026-05-05 15:24 | 38.05682 | 24.51891 | 26314 ft | 434 kts | 11° |
| 2026-05-05 15:24 | 38.08588 | 24.52942 | 26794 ft | 433 kts | 11° |
| 2026-05-05 15:25 | 38.11438 | 24.53997 | 27402 ft | 430 kts | 11° |
| 2026-05-05 15:25 | 38.14305 | 24.55073 | 28038 ft | 428 kts | 11° |
| 2026-05-05 15:25 | 38.17149 | 24.56144 | 28663 ft | 425 kts | 11° |
| 2026-05-05 15:25 | 38.19983 | 24.57214 | 29260 ft | 424 kts | 11° |
| 2026-05-05 15:26 | 38.22814 | 24.58282 | 29861 ft | 423 kts | 11° |
| 2026-05-05 15:26 | 38.25629 | 24.59345 | 30411 ft | 421 kts | 11° |
| 2026-05-05 15:26 | 38.28435 | 24.60405 | 30910 ft | 420 kts | 11° |
| 2026-05-05 15:26 | 38.31239 | 24.61465 | 31380 ft | 420 kts | 11° |
| 2026-05-05 15:27 | 38.34002 | 24.62510 | 31844 ft | 419 kts | 11° |
| 2026-05-05 15:27 | 38.36796 | 24.63568 | 32323 ft | 418 kts | 11° |
| 2026-05-05 15:27 | 38.39583 | 24.64625 | 32798 ft | 417 kts | 11° |
| 2026-05-05 15:27 | 38.42362 | 24.65679 | 33249 ft | 416 kts | 11° |
| 2026-05-05 15:28 | 38.45135 | 24.66731 | 33696 ft | 415 kts | 11° |
| 2026-05-05 15:28 | 38.47900 | 24.67782 | 34134 ft | 414 kts | 11° |
| 2026-05-05 15:28 | 38.50663 | 24.68833 | 34487 ft | 414 kts | 11° |
| 2026-05-05 15:28 | 38.53432 | 24.69886 | 34762 ft | 416 kts | 11° |
| 2026-05-05 15:29 | 38.56231 | 24.70948 | 34724 ft | 422 kts | 11° |
| 2026-05-05 15:29 | 38.59043 | 24.72020 | 35036 ft | 421 kts | 11° |
| 2026-05-05 15:29 | 38.61872 | 24.73098 | 35030 ft | 427 kts | 11° |
| 2026-05-05 15:30 | 38.67581 | 24.75278 | 35048 ft | 433 kts | 11° |
| 2026-05-05 15:30 | 38.73354 | 24.77492 | 35049 ft | 432 kts | 11° |
| 2026-05-05 15:31 | 38.79105 | 24.79697 | 35051 ft | 431 kts | 11° |
| 2026-05-05 15:31 | 38.84855 | 24.81904 | 35046 ft | 431 kts | 11° |
| 2026-05-05 15:32 | 38.90597 | 24.84110 | 35050 ft | 430 kts | 11° |
| 2026-05-05 15:32 | 38.96302 | 24.86306 | 35048 ft | 430 kts | 11° |
| 2026-05-05 15:33 | 39.02040 | 24.88518 | 35055 ft | 430 kts | 11° |
| 2026-05-05 15:33 | 39.07824 | 24.90287 | 35044 ft | 421 kts | 358° |
| 2026-05-05 15:34 | 39.13547 | 24.89358 | 35047 ft | 413 kts | 340° |
| 2026-05-05 15:34 | 39.18725 | 24.86301 | 35050 ft | 412 kts | 332° |
| 2026-05-05 15:35 | 39.23863 | 24.83023 | 35046 ft | 412 kts | 333° |
| 2026-05-05 15:35 | 39.29018 | 24.79779 | 35049 ft | 412 kts | 333° |
| 2026-05-05 15:36 | 39.34182 | 24.76559 | 35046 ft | 412 kts | 333° |
| 2026-05-05 15:36 | 39.38510 | 24.73862 | 35043 ft | 412 kts | 333° |
| 2026-05-05 15:37 | 39.43648 | 24.70654 | 35044 ft | 412 kts | 333° |
| 2026-05-05 15:37 | 39.48815 | 24.67421 | 35046 ft | 412 kts | 333° |
| 2026-05-05 15:38 | 39.54003 | 24.64172 | 35354 ft | 413 kts | 333° |
| 2026-05-05 15:38 | 39.56584 | 24.62554 | 35646 ft | 412 kts | 333° |
| 2026-05-05 15:38 | 39.59162 | 24.60937 | 35888 ft | 411 kts | 333° |
| 2026-05-05 15:38 | 39.61739 | 24.59318 | 36027 ft | 413 kts | 333° |
| 2026-05-05 15:39 | 39.64334 | 24.57687 | 36030 ft | 414 kts | 333° |
| 2026-05-05 15:39 | 39.69510 | 24.54430 | 36042 ft | 412 kts | 333° |
| 2026-05-05 15:40 | 39.74628 | 24.51202 | 36043 ft | 411 kts | 333° |
| 2026-05-05 15:40 | 39.79774 | 24.47952 | 36043 ft | 411 kts | 333° |
| 2026-05-05 15:41 | 39.84917 | 24.44699 | 36039 ft | 411 kts | 333° |
| 2026-05-05 15:41 | 39.90061 | 24.41439 | 36038 ft | 411 kts | 333° |
| 2026-05-05 15:42 | 39.95215 | 24.38167 | 36036 ft | 412 kts | 333° |
| 2026-05-05 15:42 | 40.00369 | 24.34890 | 36036 ft | 412 kts | 333° |
| 2026-05-05 15:43 | 40.05524 | 24.31606 | 36033 ft | 412 kts | 333° |
| 2026-05-05 15:43 | 40.10686 | 24.28313 | 36035 ft | 413 kts | 333° |
| 2026-05-05 15:44 | 40.15819 | 24.25033 | 36029 ft | 413 kts | 333° |
| 2026-05-05 15:44 | 40.20984 | 24.21726 | 36037 ft | 414 kts | 333° |
| 2026-05-05 15:45 | 40.26153 | 24.18411 | 36036 ft | 414 kts | 333° |
| 2026-05-05 15:45 | 40.31339 | 24.15080 | 36031 ft | 415 kts | 333° |
| 2026-05-05 15:46 | 40.36519 | 24.11746 | 36031 ft | 415 kts | 333° |
| 2026-05-05 15:46 | 40.41703 | 24.08405 | 36028 ft | 414 kts | 333° |
| 2026-05-05 15:47 | 40.46875 | 24.05065 | 36023 ft | 414 kts | 333° |
| 2026-05-05 15:47 | 40.52017 | 24.01738 | 36023 ft | 414 kts | 333° |
| 2026-05-05 15:48 | 40.57185 | 23.98391 | 36022 ft | 414 kts | 333° |
| 2026-05-05 15:48 | 40.62651 | 23.95965 | 36019 ft | 418 kts | 347° |
| 2026-05-05 15:49 | 40.68387 | 23.94638 | 36012 ft | 419 kts | 347° |
| 2026-05-05 15:49 | 40.74139 | 23.93321 | 36018 ft | 420 kts | 347° |
| 2026-05-05 15:50 | 40.79898 | 23.91968 | 36015 ft | 420 kts | 347° |
| 2026-05-05 15:50 | 40.85628 | 23.90603 | 36021 ft | 421 kts | 347° |
| 2026-05-05 15:51 | 40.91407 | 23.89220 | 36016 ft | 422 kts | 347° |
| 2026-05-05 15:51 | 40.97198 | 23.87833 | 36015 ft | 423 kts | 347° |
| 2026-05-05 15:52 | 41.03005 | 23.86439 | 36011 ft | 424 kts | 347° |
| 2026-05-05 15:52 | 41.08810 | 23.85044 | 36009 ft | 424 kts | 347° |
| 2026-05-05 15:53 | 41.14620 | 23.83645 | 36015 ft | 424 kts | 347° |
| 2026-05-05 15:53 | 41.20442 | 23.82240 | 36005 ft | 425 kts | 347° |
| 2026-05-05 15:54 | 41.26224 | 23.80844 | 36001 ft | 425 kts | 347° |
| 2026-05-05 15:54 | 41.32052 | 23.79435 | 36017 ft | 425 kts | 347° |
| 2026-05-05 15:55 | 41.37877 | 23.78027 | 36015 ft | 426 kts | 347° |
| 2026-05-05 15:55 | 41.43754 | 23.76850 | 36027 ft | 427 kts | 351° |
| 2026-05-05 15:56 | 41.49681 | 23.76042 | 36019 ft | 429 kts | 352° |
| 2026-05-05 15:56 | 41.55625 | 23.75257 | 36032 ft | 429 kts | 352° |
| 2026-05-05 15:57 | 41.61569 | 23.74435 | 36028 ft | 429 kts | 352° |
| 2026-05-05 15:57 | 41.67470 | 23.73597 | 36030 ft | 429 kts | 351° |
| 2026-05-05 15:58 | 41.73408 | 23.72748 | 36025 ft | 429 kts | 351° |
| 2026-05-05 15:58 | 41.79348 | 23.71897 | 36047 ft | 429 kts | 352° |
| 2026-05-05 15:59 | 41.85291 | 23.71045 | 36047 ft | 429 kts | 352° |
| 2026-05-05 15:59 | 41.91211 | 23.70195 | 36051 ft | 429 kts | 352° |
| 2026-05-05 16:00 | 41.97155 | 23.69339 | 36051 ft | 429 kts | 352° |
| 2026-05-05 16:00 | 42.03088 | 23.68484 | 36064 ft | 429 kts | 352° |
| 2026-05-05 16:01 | 42.09035 | 23.67625 | 36060 ft | 429 kts | 352° |
| 2026-05-05 16:01 | 42.14971 | 23.66766 | 36046 ft | 429 kts | 352° |
| 2026-05-05 16:02 | 42.20902 | 23.65906 | 36063 ft | 429 kts | 352° |
| 2026-05-05 16:02 | 42.26849 | 23.65043 | 36054 ft | 430 kts | 352° |
| 2026-05-05 16:03 | 42.31829 | 23.64835 | 36052 ft | 433 kts | 3° |
| 2026-05-05 16:03 | 42.36455 | 23.65789 | 36132 ft | 435 kts | 7° |
| 2026-05-05 16:04 | 42.42422 | 23.67168 | 36049 ft | 435 kts | 6° |
| 2026-05-05 16:04 | 42.48408 | 23.68482 | 36049 ft | 435 kts | 6° |
| 2026-05-05 16:05 | 42.54386 | 23.69936 | 35872 ft | 441 kts | 13° |
| 2026-05-05 16:05 | 42.57269 | 23.71435 | 35623 ft | 444 kts | 22° |
| 2026-05-05 16:05 | 42.59977 | 23.73473 | 35379 ft | 446 kts | 30° |
| 2026-05-05 16:05 | 42.62435 | 23.76093 | 35150 ft | 451 kts | 38° |
| 2026-05-05 16:06 | 42.64761 | 23.78958 | 35091 ft | 452 kts | 38° |
| 2026-05-05 16:06 | 42.69580 | 23.84353 | 35051 ft | 449 kts | 32° |
| 2026-05-05 16:07 | 42.74727 | 23.89132 | 35041 ft | 447 kts | 30° |
| 2026-05-05 16:07 | 42.79882 | 23.93869 | 35047 ft | 447 kts | 31° |
| 2026-05-05 16:08 | 42.85007 | 23.98683 | 35034 ft | 448 kts | 31° |
| 2026-05-05 16:08 | 42.90120 | 24.03542 | 35030 ft | 447 kts | 31° |
| 2026-05-05 16:09 | 42.95231 | 24.08413 | 35031 ft | 447 kts | 31° |
| 2026-05-05 16:09 | 43.00329 | 24.13278 | 35033 ft | 447 kts | 32° |
| 2026-05-05 16:10 | 43.05430 | 24.18155 | 35028 ft | 447 kts | 32° |
| 2026-05-05 16:10 | 43.10499 | 24.23025 | 35017 ft | 448 kts | 33° |
| 2026-05-05 16:11 | 43.15504 | 24.28129 | 35014 ft | 449 kts | 34° |
| 2026-05-05 16:12 | 43.25469 | 24.38504 | 35004 ft | 450 kts | 34° |
| 2026-05-05 16:12 | 43.30398 | 24.43616 | 34991 ft | 434 kts | 34° |
| 2026-05-05 16:13 | 43.37605 | 24.51094 | 34459 ft | 430 kts | 34° |
| 2026-05-05 16:13 | 43.39960 | 24.53541 | 34031 ft | 430 kts | 34° |
| 2026-05-05 16:13 | 43.42360 | 24.56037 | 33151 ft | 431 kts | 34° |
| 2026-05-05 16:14 | 43.47143 | 24.61023 | 31408 ft | 432 kts | 34° |
| 2026-05-05 16:14 | 43.51943 | 24.66038 | 29475 ft | 434 kts | 34° |
| 2026-05-05 16:15 | 43.56717 | 24.71038 | 27853 ft | 425 kts | 35° |
| 2026-05-05 16:15 | 43.61358 | 24.75908 | 26496 ft | 414 kts | 35° |
| 2026-05-05 16:16 | 43.65887 | 24.80667 | 25191 ft | 404 kts | 36° |
| 2026-05-05 16:16 | 43.70237 | 24.85487 | 23979 ft | 397 kts | 43° |
| 2026-05-05 16:17 | 43.73741 | 24.91286 | 23343 ft | 399 kts | 50° |
| 2026-05-05 16:17 | 43.75453 | 24.94295 | 22996 ft | 405 kts | 50° |
| 2026-05-05 16:18 | 43.78927 | 25.00398 | 22337 ft | 399 kts | 50° |
| 2026-05-05 16:18 | 43.80647 | 25.03402 | 22029 ft | 396 kts | 50° |
| 2026-05-05 16:18 | 43.84058 | 25.09341 | 21430 ft | 392 kts | 50° |
| 2026-05-05 16:19 | 43.85755 | 25.12292 | 21129 ft | 391 kts | 50° |
| 2026-05-05 16:19 | 43.87447 | 25.15239 | 20834 ft | 389 kts | 50° |
| 2026-05-05 16:19 | 43.90810 | 25.21103 | 20247 ft | 387 kts | 50° |
| 2026-05-05 16:20 | 43.94130 | 25.26905 | 19662 ft | 385 kts | 50° |
| 2026-05-05 16:20 | 43.97266 | 25.32856 | 19036 ft | 379 kts | 60° |
| 2026-05-05 16:21 | 43.99619 | 25.39361 | 18462 ft | 376 kts | 62° |
| 2026-05-05 16:22 | 44.03053 | 25.49060 | 17524 ft | 369 kts | 62° |
| 2026-05-05 16:22 | 44.05334 | 25.55419 | 17049 ft | 367 kts | 62° |
| 2026-05-05 16:23 | 44.07551 | 25.61587 | 16997 ft | 345 kts | 61° |
| 2026-05-05 16:23 | 44.08597 | 25.64501 | 16977 ft | 328 kts | 61° |
| 2026-05-05 16:23 | 44.10530 | 25.69891 | 16916 ft | 298 kts | 61° |
| 2026-05-05 16:24 | 44.11446 | 25.72446 | 16620 ft | 292 kts | 61° |
| 2026-05-05 16:24 | 44.12355 | 25.74977 | 16185 ft | 293 kts | 61° |
| 2026-05-05 16:24 | 44.13878 | 25.79223 | 15261 ft | 299 kts | 61° |
| 2026-05-05 16:25 | 44.14833 | 25.81890 | 14539 ft | 310 kts | 61° |
| 2026-05-05 16:25 | 44.16806 | 25.87407 | 14132 ft | 337 kts | 61° |
| 2026-05-05 16:25 | 44.18207 | 25.91336 | 13766 ft | 344 kts | 61° |
| 2026-05-05 16:26 | 44.19960 | 25.96275 | 13272 ft | 339 kts | 61° |
| 2026-05-05 16:26 | 44.22038 | 26.02137 | 12724 ft | 335 kts | 61° |
| 2026-05-05 16:27 | 44.23069 | 26.05046 | 12470 ft | 334 kts | 61° |
| 2026-05-05 16:27 | 44.24098 | 26.07953 | 12210 ft | 334 kts | 61° |
| 2026-05-05 16:27 | 44.25127 | 26.10862 | 11952 ft | 334 kts | 61° |
| 2026-05-05 16:27 | 44.26153 | 26.13767 | 11690 ft | 334 kts | 61° |
| 2026-05-05 16:28 | 44.27177 | 26.16669 | 11439 ft | 334 kts | 60° |
| 2026-05-05 16:28 | 44.28207 | 26.19589 | 11173 ft | 333 kts | 60° |
| 2026-05-05 16:28 | 44.29214 | 26.22450 | 10912 ft | 322 kts | 60° |
| 2026-05-05 16:28 | 44.30170 | 26.25172 | 10664 ft | 311 kts | 60° |
| 2026-05-05 16:29 | 44.31104 | 26.27831 | 10438 ft | 300 kts | 59° |
| 2026-05-05 16:29 | 44.32279 | 26.30141 | 10201 ft | 286 kts | 41° |
| 2026-05-05 16:29 | 44.33812 | 26.31819 | 10002 ft | 275 kts | 33° |
| 2026-05-05 16:29 | 44.35347 | 26.33297 | 9966 ft | 260 kts | 32° |
| 2026-05-05 16:30 | 44.36829 | 26.34710 | 9642 ft | 258 kts | 32° |
| 2026-05-05 16:30 | 44.38291 | 26.36115 | 9394 ft | 253 kts | 33° |
| 2026-05-05 16:30 | 44.39722 | 26.37502 | 9186 ft | 248 kts | 33° |
| 2026-05-05 16:30 | 44.41138 | 26.38885 | 8866 ft | 248 kts | 33° |
| 2026-05-05 16:31 | 44.42538 | 26.40256 | 8646 ft | 240 kts | 33° |
| 2026-05-05 16:31 | 44.43895 | 26.41587 | 8261 ft | 237 kts | 33° |
| 2026-05-05 16:31 | 44.45168 | 26.43050 | 7798 ft | 239 kts | 49° |
| 2026-05-05 16:31 | 44.45937 | 26.45123 | 7388 ft | 244 kts | 71° |
| 2026-05-05 16:32 | 44.46201 | 26.47428 | 7214 ft | 236 kts | 79° |
| 2026-05-05 16:32 | 44.46351 | 26.49701 | 6845 ft | 233 kts | 80° |
| 2026-05-05 16:32 | 44.46496 | 26.51965 | 6429 ft | 233 kts | 79° |
| 2026-05-05 16:32 | 44.46648 | 26.54220 | 6025 ft | 232 kts | 80° |
| 2026-05-05 16:33 | 44.46799 | 26.56435 | 5601 ft | 232 kts | 80° |
| 2026-05-05 16:33 | 44.46956 | 26.58682 | 5177 ft | 232 kts | 80° |
| 2026-05-05 16:33 | 44.47114 | 26.60920 | 4777 ft | 231 kts | 81° |
| 2026-05-05 16:33 | 44.47302 | 26.63160 | 4342 ft | 230 kts | 73° |
| 2026-05-05 16:34 | 44.48066 | 26.65079 | 3845 ft | 227 kts | 41° |
| 2026-05-05 16:34 | 44.49433 | 26.66117 | 3388 ft | 226 kts | 11° |
| 2026-05-05 16:34 | 44.50992 | 26.65976 | 2916 ft | 228 kts | 339° |
| 2026-05-05 16:34 | 44.52268 | 26.64708 | 2588 ft | 227 kts | 309° |
| 2026-05-05 16:35 | 44.53046 | 26.62773 | 2579 ft | 230 kts | 293° |
| 2026-05-05 16:35 | 44.53626 | 26.60695 | 2514 ft | 226 kts | 291° |
| 2026-05-05 16:35 | 44.54154 | 26.58693 | 2499 ft | 218 kts | 290° |
| 2026-05-05 16:35 | 44.54672 | 26.56728 | 2495 ft | 213 kts | 291° |
| 2026-05-05 16:36 | 44.55189 | 26.54787 | 2503 ft | 213 kts | 291° |
| 2026-05-05 16:36 | 44.55715 | 26.52833 | 2500 ft | 217 kts | 291° |
| 2026-05-05 16:36 | 44.56253 | 26.50847 | 2507 ft | 218 kts | 291° |
| 2026-05-05 16:36 | 44.56792 | 26.48863 | 2493 ft | 216 kts | 291° |
| 2026-05-05 16:37 | 44.57328 | 26.46900 | 2495 ft | 215 kts | 291° |
| 2026-05-05 16:37 | 44.57858 | 26.44952 | 2496 ft | 213 kts | 291° |
| 2026-05-05 16:37 | 44.58388 | 26.43011 | 2497 ft | 213 kts | 291° |
| 2026-05-05 16:37 | 44.58755 | 26.41013 | 2495 ft | 213 kts | 272° |
| 2026-05-05 16:38 | 44.58741 | 26.38925 | 2499 ft | 216 kts | 269° |
| 2026-05-05 16:38 | 44.58652 | 26.36805 | 2502 ft | 220 kts | 266° |
| 2026-05-05 16:38 | 44.58506 | 26.34686 | 2486 ft | 215 kts | 264° |
| 2026-05-05 16:38 | 44.58351 | 26.32645 | 2479 ft | 206 kts | 264° |
| 2026-05-05 16:39 | 44.58206 | 26.30744 | 2491 ft | 188 kts | 264° |
| 2026-05-05 16:39 | 44.58074 | 26.28972 | 2475 ft | 175 kts | 265° |
| 2026-05-05 16:39 | 44.57959 | 26.27306 | 2235 ft | 167 kts | 264° |
| 2026-05-05 16:39 | 44.57841 | 26.25709 | 2039 ft | 159 kts | 264° |
| 2026-05-05 16:40 | 44.57730 | 26.24257 | 1853 ft | 141 kts | 264° |
| 2026-05-05 16:40 | 44.57617 | 26.22892 | 1645 ft | 142 kts | 263° |
| 2026-05-05 16:40 | 44.57490 | 26.21539 | 1524 ft | 142 kts | 263° |
| 2026-05-05 16:40 | 44.57378 | 26.20162 | 1367 ft | 141 kts | 263° |
| 2026-05-05 16:41 | 44.57279 | 26.18798 | 1194 ft | 141 kts | 264° |
| 2026-05-05 16:41 | 44.57194 | 26.17432 | 1007 ft | 140 kts | 263° |
| 2026-05-05 16:41 | 44.57083 | 26.16081 | 832 ft | 138 kts | 262° |
| 2026-05-05 16:41 | 44.56983 | 26.14763 | 695 ft | 136 kts | 263° |
| 2026-05-05 16:42 | 44.56899 | 26.13443 | 533 ft | 136 kts | 263° |
| 2026-05-05 16:42 | 44.56801 | 26.12136 | 381 ft | 133 kts | 262° |
| 2026-05-05 16:42 | 44.56706 | 26.10902 | 322 ft | 115 kts | 264° |
| 2026-05-05 16:42 | 44.56634 | 26.09960 | 322 ft | 81 kts | 263° |
| 2026-05-05 16:43 | 44.56581 | 26.09237 | 321 ft | 64 kts | 264° |
| 2026-05-05 16:43 | 44.56561 | 26.08712 | 319 ft | 32 kts | 290° |
| 2026-05-05 16:43 | 44.56707 | 26.08581 | 321 ft | 15 kts | 353° |
| 2026-05-05 16:43 | 44.56774 | 26.08570 | 321 ft | 0 kts | 353° |
| 2026-05-05 16:44 | 44.56777 | 26.08570 | 321 ft | 3 kts | 353° |
| 2026-05-05 16:45 | 44.56853 | 26.08559 | 320 ft | 16 kts | 355° |
| 2026-05-05 16:45 | 44.56966 | 26.08544 | 319 ft | 16 kts | 354° |
| 2026-05-05 16:45 | 44.57085 | 26.08527 | 322 ft | 15 kts | 355° |
| 2026-05-05 16:45 | 44.57183 | 26.08513 | 322 ft | 8 kts | 354° |
| 2026-05-05 16:46 | 44.57186 | 26.08512 | 322 ft | 0 kts | 354° |
| 2026-05-05 16:46 | 44.57209 | 26.08508 | 322 ft | 6 kts | 348° |
| 2026-05-05 16:47 | 44.57231 | 26.08450 | 322 ft | 9 kts | 263° |
| 2026-05-05 16:47 | 44.57229 | 26.08427 | 322 ft | 0 kts | 264° |
| 2026-05-05 16:48 | 44.57229 | 26.08425 | 322 ft | 1 kts | 264° |
| 2026-05-05 16:48 | 44.57223 | 26.08353 | 322 ft | 15 kts | 264° |
| 2026-05-05 16:48 | 44.57211 | 26.08184 | 322 ft | 17 kts | 264° |
| 2026-05-05 16:49 | 44.57200 | 26.08030 | 322 ft | 14 kts | 265° |
| 2026-05-05 16:49 | 44.57199 | 26.08017 | 322 ft | 4 kts | 264° |
| 2026-05-05 16:49 | 44.57158 | 26.08002 | 320 ft | 9 kts | 174° |
| 2026-05-05 16:49 | 44.57129 | 26.08006 | 320 ft | 0 kts | 174° |